Time,TemperatureF,DewpointF,PressureIn,WindDirection,WindDirectionDegrees,WindSpeedMPH,WindSpeedGustMPH,Humidity,HourlyPrecipIn,Conditions,Clouds,dailyrainin,SolarRadiationWatts/m^2,SoftwareType,DateUTC
2013-03-06 00:00:00,25.1,22.0,30.10,NNW,339,6.0,10.0,88,0.00,,,0.00,0,WeatherHawk,2013-03-06 06:00:00,
2013-03-06 00:05:00,25.1,22.0,30.11,North,7,9.0,11.0,88,0.00,,,0.00,1,WeatherHawk,2013-03-06 06:05:00,
2013-03-06 00:10:00,25.0,22.0,30.10,NNW,343,4.0,11.0,88,0.00,,,0.00,0,WeatherHawk,2013-03-06 06:10:00,
2013-03-06 00:15:00,25.1,22.0,30.10,North,350,8.0,11.0,88,0.00,,,0.00,0,WeatherHawk,2013-03-06 06:15:00,
2013-03-06 00:20:00,25.0,22.0,30.11,North,351,6.0,11.0,88,0.00,,,0.00,0,WeatherHawk,2013-03-06 06:20:00,
2013-03-06 00:25:00,25.1,21.8,30.12,NW,319,7.0,11.0,87,0.00,,,0.00,0,WeatherHawk,2013-03-06 06:25:00,
2013-03-06 00:30:00,25.1,21.7,30.11,NNW,345,5.0,11.0,87,0.00,,,0.00,0,WeatherHawk,2013-03-06 06:30:00,
2013-03-06 00:35:00,25.2,21.9,30.11,North,349,8.0,12.0,87,0.00,,,0.00,0,WeatherHawk,2013-03-06 06:35:00,
2013-03-06 00:40:00,25.2,21.9,30.11,NNW,333,6.0,12.0,87,0.00,,,0.00,0,WeatherHawk,2013-03-06 06:40:00,
2013-03-06 00:45:00,25.3,21.7,30.12,NNW,348,6.0,10.0,86,0.00,,,0.00,0,WeatherHawk,2013-03-06 06:45:00,
2013-03-06 00:50:00,25.2,21.4,30.12,NW,308,6.0,10.0,85,0.00,,,0.00,0,WeatherHawk,2013-03-06 06:50:00,
2013-03-06 00:55:00,25.4,21.5,30.12,NW,317,6.0,11.0,85,0.00,,,0.00,0,WeatherHawk,2013-03-06 06:55:00,
2013-03-06 01:00:00,25.3,21.5,30.13,NW,316,6.0,11.0,85,0.00,,,0.00,0,WeatherHawk,2013-03-06 07:00:00,
2013-03-06 01:05:00,25.4,21.2,30.14,NNW,342,5.0,10.0,84,0.00,,,0.00,0,WeatherHawk,2013-03-06 07:05:00,
2013-03-06 01:10:00,25.4,21.2,30.13,North,350,6.0,10.0,84,0.00,,,0.00,0,WeatherHawk,2013-03-06 07:10:00,
2013-03-06 01:15:00,25.4,21.2,30.13,NNE,18,6.0,8.0,84,0.00,,,0.00,0,WeatherHawk,2013-03-06 07:15:00,
2013-03-06 01:20:00,25.4,21.3,30.13,NNW,333,7.0,8.0,84,0.00,,,0.00,0,WeatherHawk,2013-03-06 07:20:00,
2013-03-06 01:25:00,25.5,21.3,30.13,NW,315,7.0,8.0,84,0.00,,,0.00,0,WeatherHawk,2013-03-06 07:25:00,
2013-03-06 01:30:00,25.3,21.2,30.13,NNW,344,5.0,8.0,84,0.00,,,0.00,0,WeatherHawk,2013-03-06 07:30:00,
2013-03-06 01:35:00,25.2,21.1,30.13,NNW,343,6.0,9.0,84,0.00,,,0.00,0,WeatherHawk,2013-03-06 07:35:00,
2013-03-06 01:40:00,25.1,21.0,30.13,NE,38,6.0,9.0,84,0.00,,,0.00,0,WeatherHawk,2013-03-06 07:40:00,
2013-03-06 01:45:00,25.1,20.9,30.14,North,1,5.0,10.0,84,0.00,,,0.00,0,WeatherHawk,2013-03-06 07:45:00,
2013-03-06 01:50:00,25.1,20.9,30.14,North,1,6.0,10.0,84,0.00,,,0.00,1,WeatherHawk,2013-03-06 07:50:00,
2013-03-06 01:55:00,25.0,20.9,30.13,NNW,346,7.0,8.0,84,0.00,,,0.00,0,WeatherHawk,2013-03-06 07:55:00,
2013-03-06 02:00:00,25.0,20.6,30.14,NNW,329,6.0,8.0,83,0.00,,,0.00,1,WeatherHawk,2013-03-06 08:00:00,
2013-03-06 02:05:00,24.8,20.4,30.14,NNW,338,4.0,8.0,83,0.00,,,0.00,0,WeatherHawk,2013-03-06 08:05:00,
2013-03-06 02:10:00,24.5,20.1,30.14,NNW,338,6.0,8.0,83,0.00,,,0.00,0,WeatherHawk,2013-03-06 08:10:00,
2013-03-06 02:15:00,24.5,20.4,30.14,NNW,336,8.0,8.0,84,0.00,,,0.00,0,WeatherHawk,2013-03-06 08:15:00,
2013-03-06 02:20:00,24.3,20.2,30.14,North,351,6.0,8.0,84,0.00,,,0.00,0,WeatherHawk,2013-03-06 08:20:00,
2013-03-06 02:25:00,24.4,20.6,30.14,North,350,7.0,9.0,85,0.00,,,0.00,0,WeatherHawk,2013-03-06 08:25:00,
2013-03-06 02:30:00,24.1,20.0,30.14,NNW,340,3.0,9.0,84,0.00,,,0.00,0,WeatherHawk,2013-03-06 08:30:00,
2013-03-06 02:35:00,24.1,20.0,30.14,NNW,340,4.0,8.0,84,0.00,,,0.00,0,WeatherHawk,2013-03-06 08:35:00,
2013-03-06 02:40:00,24.0,19.6,30.14,NNW,342,4.0,8.0,83,0.00,,,0.00,0,WeatherHawk,2013-03-06 08:40:00,
2013-03-06 02:45:00,24.0,20.2,30.14,NNW,347,7.0,9.0,85,0.00,,,0.00,0,WeatherHawk,2013-03-06 08:45:00,
2013-03-06 02:50:00,23.6,19.7,30.15,NW,325,5.0,9.0,85,0.00,,,0.00,0,WeatherHawk,2013-03-06 08:50:00,
2013-03-06 02:55:00,23.7,19.9,30.14,NNW,327,5.0,8.0,85,0.00,,,0.00,0,WeatherHawk,2013-03-06 08:55:00,
2013-03-06 03:00:00,23.8,20.2,30.14,NW,326,5.0,8.0,86,0.00,,,0.00,1,WeatherHawk,2013-03-06 09:00:00,
2013-03-06 03:05:00,23.3,19.8,30.15,North,350,5.0,8.0,86,0.00,,,0.00,0,WeatherHawk,2013-03-06 09:05:00,
2013-03-06 03:10:00,23.1,19.5,30.15,NNW,341,4.0,8.0,86,0.00,,,0.00,0,WeatherHawk,2013-03-06 09:10:00,
2013-03-06 03:15:00,23.5,20.0,30.15,NNW,348,4.0,7.0,86,0.00,,,0.00,0,WeatherHawk,2013-03-06 09:15:00,
2013-03-06 03:20:00,23.6,20.0,30.15,NW,325,6.0,7.0,86,0.00,,,0.00,0,WeatherHawk,2013-03-06 09:20:00,
2013-03-06 03:25:00,23.4,19.8,30.15,NNW,337,5.0,-999.0,86,0.00,,,0.00,1,WeatherHawk,2013-03-06 09:25:00,
2013-03-06 03:30:00,23.4,19.6,30.16,NNW,347,6.0,9.0,85,0.00,,,0.00,0,WeatherHawk,2013-03-06 09:30:00,
2013-03-06 03:35:00,23.5,19.7,30.16,NNW,328,8.0,8.0,85,0.00,,,0.00,1,WeatherHawk,2013-03-06 09:35:00,
2013-03-06 03:40:00,23.3,19.4,30.17,NNW,337,8.0,8.0,85,0.00,,,0.00,0,WeatherHawk,2013-03-06 09:40:00,
2013-03-06 03:45:00,23.2,19.4,30.17,NNW,346,8.0,8.0,85,0.00,,,0.00,1,WeatherHawk,2013-03-06 09:45:00,
2013-03-06 03:50:00,23.4,19.6,30.16,NW,309,4.0,8.0,85,0.00,,,0.00,0,WeatherHawk,2013-03-06 09:50:00,
2013-03-06 03:55:00,23.4,19.3,30.17,NW,314,5.0,8.0,84,0.00,,,0.00,0,WeatherHawk,2013-03-06 09:55:00,
2013-03-06 04:00:00,23.6,19.5,30.17,NW,318,8.0,8.0,84,0.00,,,0.00,0,WeatherHawk,2013-03-06 10:00:00,
2013-03-06 04:05:00,23.7,19.6,30.17,NNW,334,4.0,11.0,84,0.00,,,0.00,0,WeatherHawk,2013-03-06 10:05:00,
2013-03-06 04:10:00,23.7,19.5,30.17,NNW,339,7.0,11.0,84,0.00,,,0.00,0,WeatherHawk,2013-03-06 10:10:00,
2013-03-06 04:15:00,23.5,19.1,30.17,North,350,7.0,8.0,83,0.00,,,0.00,0,WeatherHawk,2013-03-06 10:15:00,
2013-03-06 04:20:00,23.4,19.0,30.17,WSW,258,7.0,8.0,83,0.00,,,0.00,0,WeatherHawk,2013-03-06 10:20:00,
2013-03-06 04:25:00,23.3,19.2,30.18,NNW,334,4.0,10.0,84,0.00,,,0.00,0,WeatherHawk,2013-03-06 10:25:00,
2013-03-06 04:30:00,23.3,19.5,30.17,NW,308,6.0,10.0,85,0.00,,,0.00,0,WeatherHawk,2013-03-06 10:30:00,
2013-03-06 04:35:00,23.4,19.6,30.17,NNW,339,6.0,10.0,85,0.00,,,0.00,0,WeatherHawk,2013-03-06 10:35:00,
2013-03-06 04:40:00,23.3,19.5,30.17,WNW,282,6.0,-999.0,85,0.00,,,0.00,1,WeatherHawk,2013-03-06 10:40:00,
2013-03-06 04:45:00,23.3,19.8,30.18,NW,321,4.0,9.0,86,0.00,,,0.00,0,WeatherHawk,2013-03-06 10:45:00,
2013-03-06 04:50:00,23.3,19.8,30.18,NNW,342,4.0,9.0,86,0.00,,,0.00,0,WeatherHawk,2013-03-06 10:50:00,
2013-03-06 04:55:00,23.3,19.8,30.18,NW,322,3.0,9.0,86,0.00,,,0.00,0,WeatherHawk,2013-03-06 10:55:00,
2013-03-06 05:00:00,23.4,19.9,30.18,NW,321,5.0,9.0,86,0.00,,,0.00,0,WeatherHawk,2013-03-06 11:00:00,
2013-03-06 05:05:00,23.5,19.9,30.18,WNW,302,5.0,9.0,86,0.00,,,0.00,0,WeatherHawk,2013-03-06 11:05:00,
2013-03-06 05:10:00,23.5,20.0,30.18,NW,323,7.0,9.0,86,0.00,,,0.00,0,WeatherHawk,2013-03-06 11:10:00,
2013-03-06 05:15:00,23.5,19.7,30.19,NNW,328,5.0,9.0,85,0.00,,,0.00,0,WeatherHawk,2013-03-06 11:15:00,
2013-03-06 05:20:00,23.5,19.9,30.19,NW,309,6.0,9.0,86,0.00,,,0.00,0,WeatherHawk,2013-03-06 11:20:00,
2013-03-06 05:25:00,23.6,19.8,30.19,North,350,7.0,10.0,85,0.00,,,0.00,0,WeatherHawk,2013-03-06 11:25:00,
2013-03-06 05:30:00,23.8,20.0,30.19,NW,322,8.0,10.0,85,0.00,,,0.00,0,WeatherHawk,2013-03-06 11:30:00,
2013-03-06 05:35:00,23.9,20.1,30.20,NW,316,6.0,10.0,85,0.00,,,0.00,0,WeatherHawk,2013-03-06 11:35:00,
2013-03-06 05:40:00,24.1,19.9,30.19,NW,325,8.0,10.0,84,0.00,,,0.00,0,WeatherHawk,2013-03-06 11:40:00,
2013-03-06 05:45:00,24.0,19.9,30.20,NW,318,8.0,11.0,84,0.00,,,0.00,0,WeatherHawk,2013-03-06 11:45:00,
2013-03-06 05:50:00,24.2,20.1,30.20,NW,319,10.0,11.0,84,0.00,,,0.00,0,WeatherHawk,2013-03-06 11:50:00,
2013-03-06 05:55:00,24.3,20.2,30.20,NW,308,12.0,12.0,84,0.00,,,0.00,0,WeatherHawk,2013-03-06 11:55:00,
2013-03-06 06:00:00,24.3,19.9,30.20,NW,326,8.0,11.0,83,0.00,,,0.00,1,WeatherHawk,2013-03-06 12:00:00,
2013-03-06 06:05:00,24.3,19.9,30.20,NW,326,10.0,11.0,83,0.00,,,0.00,2,WeatherHawk,2013-03-06 12:05:00,
2013-03-06 06:10:00,24.4,20.0,30.20,NW,317,11.0,11.0,83,0.00,,,0.00,0,WeatherHawk,2013-03-06 12:10:00,
2013-03-06 06:15:00,24.3,19.9,30.21,NW,305,11.0,14.0,83,0.00,,,0.00,0,WeatherHawk,2013-03-06 12:15:00,
2013-03-06 06:20:00,24.4,20.0,30.21,WNW,300,10.0,14.0,83,0.00,,,0.00,1,WeatherHawk,2013-03-06 12:20:00,
2013-03-06 06:25:00,24.4,20.0,30.21,WNW,296,8.0,-999.0,83,0.00,,,0.00,2,WeatherHawk,2013-03-06 12:25:00,
2013-03-06 06:30:00,24.5,20.3,30.21,North,351,7.0,12.0,84,0.00,,,0.00,5,WeatherHawk,2013-03-06 12:30:00,
2013-03-06 06:35:00,24.5,20.3,30.22,NW,322,7.0,-999.0,84,0.00,,,0.00,8,WeatherHawk,2013-03-06 12:35:00,
2013-03-06 06:40:00,24.5,20.3,30.22,North,9,8.0,-999.0,84,0.00,,,0.00,9,WeatherHawk,2013-03-06 12:40:00,
2013-03-06 06:45:00,24.5,20.4,30.22,NNW,331,7.0,13.0,84,0.00,,,0.00,13,WeatherHawk,2013-03-06 12:45:00,
2013-03-06 06:50:00,24.6,20.4,30.22,NNW,329,10.0,13.0,84,0.00,,,0.00,15,WeatherHawk,2013-03-06 12:50:00,
2013-03-06 06:55:00,24.6,20.4,30.23,WNW,295,10.0,13.0,84,0.00,,,0.00,18,WeatherHawk,2013-03-06 12:55:00,
2013-03-06 07:00:00,24.6,20.5,30.23,WNW,287,8.0,13.0,84,0.00,,,0.00,20,WeatherHawk,2013-03-06 13:00:00,
2013-03-06 07:05:00,24.6,20.5,30.23,NW,312,3.0,13.0,84,0.00,,,0.00,27,WeatherHawk,2013-03-06 13:05:00,
2013-03-06 07:10:00,24.7,20.6,30.22,West,260,8.0,13.0,84,0.00,,,0.00,40,WeatherHawk,2013-03-06 13:10:00,
2013-03-06 07:15:00,24.6,20.2,30.23,NNW,346,9.0,11.0,83,0.00,,,0.00,42,WeatherHawk,2013-03-06 13:15:00,
2013-03-06 07:20:00,24.8,20.4,30.23,NW,309,5.0,11.0,83,0.00,,,0.00,54,WeatherHawk,2013-03-06 13:20:00,
2013-03-06 07:25:00,24.8,20.1,30.23,NW,319,8.0,10.0,82,0.00,,,0.00,64,WeatherHawk,2013-03-06 13:25:00,
2013-03-06 07:30:00,24.8,19.9,30.23,NNW,327,6.0,-999.0,81,0.00,,,0.00,72,WeatherHawk,2013-03-06 13:30:00,
2013-03-06 07:35:00,24.9,19.6,30.24,NNW,342,9.0,10.0,80,0.00,,,0.00,66,WeatherHawk,2013-03-06 13:35:00,
2013-03-06 07:40:00,25.0,19.7,30.24,NW,312,5.0,10.0,80,0.00,,,0.00,58,WeatherHawk,2013-03-06 13:40:00,
2013-03-06 07:45:00,25.0,19.7,30.24,NNW,329,8.0,12.0,80,0.00,,,0.00,69,WeatherHawk,2013-03-06 13:45:00,
2013-03-06 07:50:00,25.0,19.7,30.24,NW,320,6.0,12.0,80,0.00,,,0.00,74,WeatherHawk,2013-03-06 13:50:00,
2013-03-06 07:55:00,25.0,19.7,30.25,NW,306,5.0,9.0,80,0.00,,,0.00,79,WeatherHawk,2013-03-06 13:55:00,
2013-03-06 08:00:00,25.2,19.9,30.25,North,2,6.0,9.0,80,0.00,,,0.00,93,WeatherHawk,2013-03-06 14:00:00,
2013-03-06 08:06:00,25.1,19.5,30.25,NNW,341,9.0,11.0,79,0.00,,,0.00,99,WeatherHawk,2013-03-06 14:06:00,
2013-03-06 08:11:00,25.2,19.6,30.25,NNW,330,5.0,11.0,79,0.00,,,0.00,121,WeatherHawk,2013-03-06 14:11:00,
2013-03-06 08:17:00,25.3,19.4,30.24,NW,322,8.0,11.0,78,0.00,,,0.00,126,WeatherHawk,2013-03-06 14:17:00,
2013-03-06 08:22:00,25.3,19.1,30.24,NW,325,6.0,12.0,77,0.00,,,0.00,147,WeatherHawk,2013-03-06 14:22:00,
2013-03-06 08:27:00,25.4,18.9,30.25,NNW,337,8.0,12.0,76,0.00,,,0.00,152,WeatherHawk,2013-03-06 14:27:00,
2013-03-06 08:33:00,25.8,19.0,30.25,NW,308,6.0,10.0,75,0.00,,,0.00,154,WeatherHawk,2013-03-06 14:33:00,
2013-03-06 08:38:00,25.8,18.6,30.25,NNW,337,6.0,10.0,74,0.00,,,0.00,174,WeatherHawk,2013-03-06 14:38:00,
2013-03-06 08:43:00,26.1,18.6,30.25,NW,320,3.0,11.0,73,0.00,,,0.00,188,WeatherHawk,2013-03-06 14:43:00,
2013-03-06 08:48:00,25.9,17.5,30.25,NE,38,11.0,11.0,70,0.00,,,0.00,192,WeatherHawk,2013-03-06 14:48:00,
2013-03-06 08:53:00,26.4,18.6,30.25,West,278,5.0,11.0,72,0.00,,,0.00,170,WeatherHawk,2013-03-06 14:53:00,
2013-03-06 08:59:00,26.4,18.3,30.26,NNW,333,4.0,11.0,71,0.00,,,0.00,211,WeatherHawk,2013-03-06 14:59:00,
2013-03-06 09:04:00,26.4,17.6,30.27,North,0,9.0,12.0,69,0.00,,,0.00,235,WeatherHawk,2013-03-06 15:04:00,
2013-03-06 09:09:00,26.7,17.9,30.27,NW,324,4.0,12.0,69,0.00,,,0.00,221,WeatherHawk,2013-03-06 15:09:00,
2013-03-06 09:15:00,26.1,17.0,30.27,NW,315,8.0,12.0,68,0.00,,,0.00,207,WeatherHawk,2013-03-06 15:15:00,
2013-03-06 09:20:00,26.5,17.7,30.27,NNW,331,8.0,12.0,69,0.00,,,0.00,213,WeatherHawk,2013-03-06 15:20:00,
2013-03-06 09:25:00,26.5,17.4,30.27,NW,325,9.0,10.0,68,0.00,,,0.00,249,WeatherHawk,2013-03-06 15:25:00,
2013-03-06 09:30:00,26.8,17.7,30.27,NNW,327,10.0,10.0,68,0.00,,,0.00,283,WeatherHawk,2013-03-06 15:30:00,
2013-03-06 09:35:00,26.7,17.3,30.27,NNW,329,4.0,12.0,67,0.00,,,0.00,297,WeatherHawk,2013-03-06 15:35:00,
2013-03-06 09:40:00,27.2,17.0,30.26,NW,323,9.0,12.0,65,0.00,,,0.00,320,WeatherHawk,2013-03-06 15:40:00,
2013-03-06 09:45:00,27.8,17.6,30.27,NNW,328,5.0,11.0,65,0.00,,,0.00,345,WeatherHawk,2013-03-06 15:45:00,
2013-03-06 09:50:00,27.6,16.7,30.28,NNW,348,6.0,11.0,63,0.00,,,0.00,370,WeatherHawk,2013-03-06 15:50:00,
2013-03-06 09:55:00,28.0,16.3,30.26,NNW,331,8.0,10.0,61,0.00,,,0.00,406,WeatherHawk,2013-03-06 15:55:00,
2013-03-06 10:00:00,28.1,16.4,30.27,North,351,6.0,10.0,61,0.00,,,0.00,408,WeatherHawk,2013-03-06 16:00:00,
2013-03-06 10:05:00,27.5,15.5,30.27,NNW,344,6.0,11.0,60,0.00,,,0.00,357,WeatherHawk,2013-03-06 16:05:00,
2013-03-06 10:10:00,28.1,16.4,30.28,North,0,5.0,11.0,61,0.00,,,0.00,378,WeatherHawk,2013-03-06 16:10:00,
2013-03-06 10:15:00,28.0,15.6,30.27,NNW,343,6.0,10.0,59,0.00,,,0.00,401,WeatherHawk,2013-03-06 16:15:00,
2013-03-06 10:21:00,29.1,17.0,30.27,WSW,252,5.0,0.0,60,0.00,,,0.00,394,WeatherHawk,2013-03-06 16:21:00,
2013-03-06 10:26:00,28.0,15.1,30.28,NNW,342,11.0,11.0,58,0.00,,,0.00,404,WeatherHawk,2013-03-06 16:26:00,
2013-03-06 10:32:00,28.3,16.2,30.28,NW,322,6.0,12.0,60,0.00,,,0.00,400,WeatherHawk,2013-03-06 16:32:00,
2013-03-06 10:37:00,28.6,16.5,30.28,NE,38,7.0,12.0,60,0.00,,,0.00,400,WeatherHawk,2013-03-06 16:37:00,
2013-03-06 10:42:00,28.3,16.3,30.28,NW,304,8.0,11.0,60,0.00,,,0.00,409,WeatherHawk,2013-03-06 16:42:00,
2013-03-06 10:47:00,28.3,16.2,30.27,NNW,335,7.0,11.0,60,0.00,,,0.00,389,WeatherHawk,2013-03-06 16:47:00,
2013-03-06 10:53:00,28.6,16.5,30.27,NW,308,7.0,14.0,60,0.00,,,0.00,378,WeatherHawk,2013-03-06 16:53:00,
2013-03-06 10:58:00,29.0,16.8,30.28,NNW,330,5.0,14.0,60,0.00,,,0.00,367,WeatherHawk,2013-03-06 16:58:00,
2013-03-06 11:04:00,28.2,15.7,30.28,NW,309,10.0,11.0,59,0.00,,,0.00,347,WeatherHawk,2013-03-06 17:04:00,
2013-03-06 11:09:00,27.8,15.4,30.27,NNW,333,14.0,14.0,59,0.00,,,0.00,357,WeatherHawk,2013-03-06 17:09:00,
2013-03-06 11:14:00,29.0,16.9,30.28,NW,320,6.0,12.0,60,0.00,,,0.00,362,WeatherHawk,2013-03-06 17:14:00,
2013-03-06 11:20:00,28.5,16.8,30.28,NW,321,10.0,12.0,61,0.00,,,0.00,358,WeatherHawk,2013-03-06 17:20:00,
2013-03-06 11:25:00,28.4,17.0,30.29,NW,312,9.0,14.0,62,0.00,,,0.00,338,WeatherHawk,2013-03-06 17:25:00,
2013-03-06 11:30:00,28.3,17.0,30.29,NNW,327,11.0,14.0,62,0.00,,,0.00,346,WeatherHawk,2013-03-06 17:30:00,
2013-03-06 11:35:00,28.5,16.4,30.28,NNW,339,9.0,13.0,60,0.00,,,0.00,345,WeatherHawk,2013-03-06 17:35:00,
2013-03-06 11:40:00,28.6,16.9,30.28,North,0,7.0,-999.0,61,0.00,,,0.00,344,WeatherHawk,2013-03-06 17:40:00,
2013-03-06 11:45:00,29.2,17.9,30.28,NW,326,6.0,13.0,62,0.00,,,0.00,355,WeatherHawk,2013-03-06 17:45:00,
2013-03-06 11:50:00,29.9,18.1,30.28,NW,308,4.0,13.0,61,0.00,,,0.00,344,WeatherHawk,2013-03-06 17:50:00,
2013-03-06 11:55:00,29.3,17.6,30.28,NNW,334,5.0,11.0,61,0.00,,,0.00,306,WeatherHawk,2013-03-06 17:55:00,
2013-03-06 12:00:00,29.2,17.0,30.28,NNW,331,5.0,11.0,60,0.00,,,0.00,335,WeatherHawk,2013-03-06 18:00:00,
2013-03-06 12:05:00,29.3,17.2,30.27,North,3,8.0,-999.0,60,0.00,,,0.00,389,WeatherHawk,2013-03-06 18:05:00,
2013-03-06 12:10:00,29.7,17.9,30.29,North,351,6.0,11.0,61,0.00,,,0.00,398,WeatherHawk,2013-03-06 18:10:00,
2013-03-06 12:15:00,29.3,17.2,30.27,West,280,10.0,12.0,60,0.00,,,0.00,396,WeatherHawk,2013-03-06 18:15:00,
2013-03-06 12:20:00,29.6,17.5,30.27,NNW,348,7.0,12.0,60,0.00,,,0.00,412,WeatherHawk,2013-03-06 18:20:00,
2013-03-06 12:25:00,29.4,17.3,30.27,NW,319,6.0,13.0,60,0.00,,,0.00,443,WeatherHawk,2013-03-06 18:25:00,
2013-03-06 12:30:00,29.9,17.3,30.27,NNW,328,5.0,13.0,59,0.00,,,0.00,420,WeatherHawk,2013-03-06 18:30:00,
2013-03-06 12:35:00,29.6,16.7,30.28,NW,306,6.0,-999.0,58,0.00,,,0.00,443,WeatherHawk,2013-03-06 18:35:00,
2013-03-06 12:40:00,29.7,16.3,30.27,NNW,347,7.0,0.0,57,0.00,,,0.00,462,WeatherHawk,2013-03-06 18:40:00,
2013-03-06 12:46:00,29.5,15.7,30.27,NW,319,6.0,10.0,56,0.00,,,0.00,474,WeatherHawk,2013-03-06 18:46:00,
2013-03-06 12:51:00,30.5,16.7,30.27,NW,319,7.0,11.0,56,0.00,,,0.00,455,WeatherHawk,2013-03-06 18:51:00,
2013-03-06 12:57:00,30.9,17.5,30.27,NNW,342,4.0,11.0,57,0.00,,,0.00,428,WeatherHawk,2013-03-06 18:57:00,
2013-03-06 13:02:00,29.7,16.0,30.27,NNW,346,8.0,9.0,56,0.00,,,0.00,387,WeatherHawk,2013-03-06 19:02:00,
2013-03-06 13:08:00,30.2,16.9,30.26,North,5,7.0,9.0,57,0.00,,,0.00,455,WeatherHawk,2013-03-06 19:08:00,
2013-03-06 13:14:00,30.8,17.0,30.27,NW,316,4.0,10.0,56,0.00,,,0.00,407,WeatherHawk,2013-03-06 19:14:00,
2013-03-06 13:19:00,30.1,16.3,30.27,NNW,336,6.0,10.0,56,0.00,,,0.00,381,WeatherHawk,2013-03-06 19:19:00,
2013-03-06 13:24:00,31.5,17.6,30.26,NW,310,5.0,9.0,56,0.00,,,0.00,388,WeatherHawk,2013-03-06 19:24:00,
2013-03-06 13:29:00,30.6,15.9,30.27,NW,325,6.0,9.0,54,0.00,,,0.00,372,WeatherHawk,2013-03-06 19:29:00,
2013-03-06 13:34:00,30.4,15.7,30.26,NW,318,7.0,-999.0,54,0.00,,,0.00,354,WeatherHawk,2013-03-06 19:34:00,
2013-03-06 13:39:00,30.9,17.5,30.26,North,351,4.0,8.0,57,0.00,,,0.00,328,WeatherHawk,2013-03-06 19:39:00,
2013-03-06 13:44:00,30.6,16.8,30.26,NNW,332,6.0,9.0,56,0.00,,,0.00,340,WeatherHawk,2013-03-06 19:44:00,
2013-03-06 13:49:00,31.1,17.3,30.26,NW,313,7.0,9.0,56,0.00,,,0.00,354,WeatherHawk,2013-03-06 19:49:00,
2013-03-06 13:54:00,31.1,16.8,30.26,NW,319,8.0,9.0,55,0.00,,,0.00,344,WeatherHawk,2013-03-06 19:54:00,
2013-03-06 13:59:00,31.0,16.7,30.26,WNW,302,7.0,9.0,55,0.00,,,0.00,343,WeatherHawk,2013-03-06 19:59:00,
2013-03-06 14:04:00,30.9,16.7,30.25,NNW,347,6.0,10.0,55,0.00,,,0.00,334,WeatherHawk,2013-03-06 20:04:00,
2013-03-06 14:09:00,31.5,17.6,30.25,NW,319,6.0,10.0,56,0.00,,,0.00,348,WeatherHawk,2013-03-06 20:09:00,
2013-03-06 14:14:00,31.5,17.2,30.25,WNW,284,9.0,10.0,55,0.00,,,0.00,330,WeatherHawk,2013-03-06 20:14:00,
2013-03-06 14:19:00,31.3,17.0,30.26,NW,313,6.0,10.0,55,0.00,,,0.00,320,WeatherHawk,2013-03-06 20:19:00,
2013-03-06 14:24:00,31.2,17.0,30.26,NW,319,7.0,9.0,55,0.00,,,0.00,318,WeatherHawk,2013-03-06 20:24:00,
2013-03-06 14:29:00,32.0,17.2,30.25,West,271,5.0,9.0,54,0.00,,,0.00,330,WeatherHawk,2013-03-06 20:29:00,
2013-03-06 14:34:00,31.2,16.0,30.26,NNW,336,8.0,10.0,53,0.00,,,0.00,326,WeatherHawk,2013-03-06 20:34:00,
2013-03-06 14:39:00,31.6,16.0,30.25,NNW,346,9.0,10.0,52,0.00,,,0.00,316,WeatherHawk,2013-03-06 20:39:00,
2013-03-06 14:44:00,32.0,16.8,30.26,WNW,290,5.0,11.0,53,0.00,,,0.00,302,WeatherHawk,2013-03-06 20:44:00,
2013-03-06 14:49:00,32.1,16.9,30.27,NW,318,5.0,11.0,53,0.00,,,0.00,316,WeatherHawk,2013-03-06 20:49:00,
2013-03-06 14:54:00,31.8,16.7,30.26,NW,310,6.0,11.0,53,0.00,,,0.00,299,WeatherHawk,2013-03-06 20:54:00,
2013-03-06 14:59:00,32.0,16.8,30.27,NW,304,7.0,11.0,53,0.00,,,0.00,284,WeatherHawk,2013-03-06 20:59:00,
2013-03-06 15:04:00,31.5,16.4,30.26,NW,306,8.0,10.0,53,0.00,,,0.00,276,WeatherHawk,2013-03-06 21:04:00,
2013-03-06 15:09:00,31.3,16.2,30.27,NNW,333,9.0,10.0,53,0.00,,,0.00,277,WeatherHawk,2013-03-06 21:09:00,
2013-03-06 15:14:00,31.3,16.1,30.27,NW,321,8.0,9.0,53,0.00,,,0.00,260,WeatherHawk,2013-03-06 21:14:00,
2013-03-06 15:19:00,31.3,16.6,30.26,NNW,346,6.0,9.0,54,0.00,,,0.00,235,WeatherHawk,2013-03-06 21:19:00,
2013-03-06 15:24:00,31.7,17.0,30.27,NW,318,6.0,11.0,54,0.00,,,0.00,220,WeatherHawk,2013-03-06 21:24:00,
2013-03-06 15:29:00,31.6,17.3,30.27,NW,325,7.0,11.0,55,0.00,,,0.00,212,WeatherHawk,2013-03-06 21:29:00,
2013-03-06 15:34:00,31.1,16.4,30.26,NW,325,7.0,10.0,54,0.00,,,0.00,197,WeatherHawk,2013-03-06 21:34:00,
2013-03-06 15:39:00,31.5,17.2,30.27,NW,321,5.0,10.0,55,0.00,,,0.00,177,WeatherHawk,2013-03-06 21:39:00,
2013-03-06 15:44:00,31.4,16.7,30.27,NW,314,9.0,10.0,54,0.00,,,0.00,171,WeatherHawk,2013-03-06 21:44:00,
2013-03-06 15:49:00,31.4,17.1,30.26,NW,320,6.0,10.0,55,0.00,,,0.00,164,WeatherHawk,2013-03-06 21:49:00,
2013-03-06 15:54:00,31.5,17.3,30.27,NNW,329,4.0,-999.0,55,0.00,,,0.00,160,WeatherHawk,2013-03-06 21:54:00,
2013-03-06 15:59:00,31.3,17.1,30.28,WNW,296,6.0,10.0,55,0.00,,,0.00,161,WeatherHawk,2013-03-06 21:59:00,
2013-03-06 16:04:00,31.2,17.0,30.26,NW,322,6.0,9.0,55,0.00,,,0.00,153,WeatherHawk,2013-03-06 22:04:00,
2013-03-06 16:09:00,31.3,17.4,30.27,NNW,333,5.0,9.0,56,0.00,,,0.00,141,WeatherHawk,2013-03-06 22:09:00,
2013-03-06 16:14:00,31.3,17.0,30.27,WNW,297,8.0,10.0,55,0.00,,,0.00,130,WeatherHawk,2013-03-06 22:14:00,
2013-03-06 16:19:00,31.3,17.4,30.27,NW,322,2.0,10.0,56,0.00,,,0.00,132,WeatherHawk,2013-03-06 22:19:00,
2013-03-06 16:24:00,31.5,17.6,30.27,NW,322,3.0,7.0,56,0.00,,,0.00,123,WeatherHawk,2013-03-06 22:24:00,
2013-03-06 16:29:00,31.0,16.8,30.28,NNW,335,9.0,9.0,55,0.00,,,0.00,113,WeatherHawk,2013-03-06 22:29:00,
2013-03-06 16:34:00,31.2,17.4,30.28,NNW,333,5.0,8.0,56,0.00,,,0.00,99,WeatherHawk,2013-03-06 22:34:00,
2013-03-06 16:39:00,31.0,17.6,30.27,NW,321,4.0,8.0,57,0.00,,,0.00,94,WeatherHawk,2013-03-06 22:39:00,
2013-03-06 16:44:00,31.2,18.5,30.28,NNW,328,2.0,9.0,59,0.00,,,0.00,86,WeatherHawk,2013-03-06 22:44:00,
2013-03-06 16:49:00,30.8,17.8,30.28,NNW,329,7.0,9.0,58,0.00,,,0.00,85,WeatherHawk,2013-03-06 22:49:00,
2013-03-06 16:54:00,31.0,18.3,30.28,West,272,1.0,9.0,59,0.00,,,0.00,76,WeatherHawk,2013-03-06 22:54:00,
2013-03-06 16:59:00,30.7,18.1,30.27,NW,317,5.0,9.0,59,0.00,,,0.00,69,WeatherHawk,2013-03-06 22:59:00,
2013-03-06 17:05:00,30.8,18.5,30.27,NW,308,3.0,8.0,60,0.00,,,0.00,58,WeatherHawk,2013-03-06 23:05:00,
2013-03-06 17:09:00,30.6,18.4,30.27,NW,326,3.0,8.0,60,0.00,,,0.00,52,WeatherHawk,2013-03-06 23:09:00,
2013-03-06 17:14:00,30.6,18.3,30.27,NW,323,5.0,7.0,60,0.00,,,0.00,43,WeatherHawk,2013-03-06 23:14:00,
2013-03-06 17:19:00,30.4,18.5,30.27,NW,323,3.0,7.0,61,0.00,,,0.00,37,WeatherHawk,2013-03-06 23:19:00,
2013-03-06 17:24:00,30.3,18.9,30.26,NNW,334,5.0,6.0,62,0.00,,,0.00,28,WeatherHawk,2013-03-06 23:24:00,
2013-03-06 17:30:00,30.3,19.2,30.27,WNW,296,2.0,6.0,63,0.00,,,0.00,23,WeatherHawk,2013-03-06 23:30:00,
2013-03-06 17:34:00,30.2,19.2,30.27,NW,322,3.0,6.0,63,0.00,,,0.00,15,WeatherHawk,2013-03-06 23:34:00,
2013-03-06 17:39:00,30.1,19.4,30.27,NW,325,2.0,6.0,64,0.00,,,0.00,5,WeatherHawk,2013-03-06 23:39:00,
2013-03-06 17:45:00,30.0,19.7,30.28,NW,321,2.0,5.0,65,0.00,,,0.00,7,WeatherHawk,2013-03-06 23:45:00,
2013-03-06 17:50:00,30.0,19.7,30.27,NW,322,3.0,5.0,65,0.00,,,0.00,4,WeatherHawk,2013-03-06 23:50:00,
2013-03-06 17:55:00,29.8,19.5,30.28,WNW,286,2.0,5.0,65,0.00,,,0.00,2,WeatherHawk,2013-03-06 23:55:00,
2013-03-06 18:00:00,29.8,19.5,30.28,NNW,328,2.0,5.0,65,0.00,,,0.00,2,WeatherHawk,2013-03-07 00:00:00,
2013-03-06 18:05:00,29.9,19.9,30.28,NW,325,3.0,-999.0,66,0.00,,,0.00,0,WeatherHawk,2013-03-07 00:05:00,
2013-03-06 18:10:00,29.5,19.6,30.28,WNW,285,0.0,6.0,66,0.00,,,0.00,0,WeatherHawk,2013-03-07 00:10:00,
2013-03-06 18:15:00,29.6,20.4,30.29,WNW,295,1.0,-999.0,68,0.00,,,0.00,0,WeatherHawk,2013-03-07 00:15:00,
2013-03-06 18:20:00,29.3,20.4,30.28,WNW,290,0.0,5.0,69,0.00,,,0.00,0,WeatherHawk,2013-03-07 00:20:00,
2013-03-06 18:25:00,29.3,20.0,30.28,West,279,0.0,4.0,68,0.00,,,0.00,0,WeatherHawk,2013-03-07 00:25:00,
2013-03-06 18:30:00,29.4,19.9,30.29,NW,319,1.0,-999.0,67,0.00,,,0.00,0,WeatherHawk,2013-03-07 00:30:00,
2013-03-06 18:35:00,29.5,19.9,30.28,NW,309,2.0,2.0,67,0.00,,,0.00,0,WeatherHawk,2013-03-07 00:35:00,
2013-03-06 18:40:00,29.4,19.4,30.28,NNW,330,3.0,3.0,66,0.00,,,0.00,0,WeatherHawk,2013-03-07 00:40:00,
2013-03-06 18:45:00,29.1,19.6,30.29,WNW,286,1.0,6.0,67,0.00,,,0.00,0,WeatherHawk,2013-03-07 00:45:00,
2013-03-06 18:50:00,29.0,19.7,30.29,WSW,256,0.0,6.0,68,0.00,,,0.00,0,WeatherHawk,2013-03-07 00:50:00,
2013-03-06 18:55:00,28.9,19.7,30.29,West,279,0.0,4.0,68,0.00,,,0.00,1,WeatherHawk,2013-03-07 00:55:00,
2013-03-06 19:00:00,29.0,19.4,30.29,West,273,0.0,4.0,67,0.00,,,0.00,0,WeatherHawk,2013-03-07 01:00:00,
2013-03-06 19:05:00,28.8,19.3,30.29,WNW,288,0.0,3.0,67,0.00,,,0.00,0,WeatherHawk,2013-03-07 01:05:00,
2013-03-06 19:10:00,28.8,19.2,30.29,WSW,252,0.0,3.0,67,0.00,,,0.00,1,WeatherHawk,2013-03-07 01:10:00,
2013-03-06 19:16:00,28.6,19.4,30.29,West,270,0.0,3.0,68,0.00,,,0.00,0,WeatherHawk,2013-03-07 01:16:00,
2013-03-06 19:21:00,28.8,19.6,30.29,WNW,290,2.0,4.0,68,0.00,,,0.00,0,WeatherHawk,2013-03-07 01:21:00,
2013-03-06 19:26:00,28.6,19.4,30.29,WNW,282,1.0,4.0,68,0.00,,,0.00,1,WeatherHawk,2013-03-07 01:26:00,
2013-03-06 19:31:00,28.4,19.2,30.29,WNW,293,0.0,2.0,68,0.00,,,0.00,0,WeatherHawk,2013-03-07 01:31:00,
2013-03-06 19:37:00,28.4,19.2,30.29,WSW,250,0.0,2.0,68,0.00,,,0.00,1,WeatherHawk,2013-03-07 01:37:00,
2013-03-06 19:42:00,28.3,19.1,30.29,WSW,248,0.0,3.0,68,0.00,,,0.00,0,WeatherHawk,2013-03-07 01:42:00,
2013-03-06 19:48:00,28.2,19.3,30.29,NNW,331,0.0,3.0,69,0.00,,,0.00,0,WeatherHawk,2013-03-07 01:48:00,
2013-03-06 19:53:00,28.4,19.5,30.29,West,263,1.0,3.0,69,0.00,,,0.00,0,WeatherHawk,2013-03-07 01:53:00,
2013-03-06 19:59:00,28.3,19.5,30.29,WNW,285,0.0,3.0,69,0.00,,,0.00,0,WeatherHawk,2013-03-07 01:59:00,
2013-03-06 20:03:00,28.2,19.7,30.30,West,273,0.0,3.0,70,0.00,,,0.00,0,WeatherHawk,2013-03-07 02:03:00,
2013-03-06 20:09:00,28.0,19.5,30.29,West,269,0.0,3.0,70,0.00,,,0.00,0,WeatherHawk,2013-03-07 02:09:00,
2013-03-06 20:14:00,28.2,19.7,30.30,WNW,299,0.0,2.0,70,0.00,,,0.00,0,WeatherHawk,2013-03-07 02:14:00,
2013-03-06 20:20:00,28.1,19.3,30.30,WNW,288,1.0,2.0,69,0.00,,,0.00,0,WeatherHawk,2013-03-07 02:20:00,
2013-03-06 20:25:00,28.0,19.5,30.30,West,278,0.0,2.0,70,0.00,,,0.00,1,WeatherHawk,2013-03-07 02:25:00,
2013-03-06 20:30:00,28.1,19.6,30.30,WNW,297,0.0,2.0,70,0.00,,,0.00,0,WeatherHawk,2013-03-07 02:30:00,
2013-03-06 20:35:00,28.0,19.2,30.30,West,269,0.0,3.0,69,0.00,,,0.00,1,WeatherHawk,2013-03-07 02:35:00,
2013-03-06 20:40:00,28.2,19.3,30.31,West,266,1.0,3.0,69,0.00,,,0.00,0,WeatherHawk,2013-03-07 02:40:00,
2013-03-06 20:45:00,27.9,19.1,30.30,WNW,282,0.0,5.0,69,0.00,,,0.00,0,WeatherHawk,2013-03-07 02:45:00,
2013-03-06 20:50:00,27.9,19.1,30.30,NW,320,0.0,5.0,69,0.00,,,0.00,0,WeatherHawk,2013-03-07 02:50:00,
2013-03-06 20:55:00,27.7,18.9,30.30,WNW,283,0.0,1.0,69,0.00,,,0.00,0,WeatherHawk,2013-03-07 02:55:00,
2013-03-06 21:00:00,27.9,19.4,30.30,West,261,0.0,1.0,70,0.00,,,0.00,1,WeatherHawk,2013-03-07 03:00:00,
2013-03-06 21:05:00,28.0,19.2,30.30,West,261,0.0,3.0,69,0.00,,,0.00,0,WeatherHawk,2013-03-07 03:05:00,
2013-03-06 21:11:00,27.8,19.3,30.30,WSW,244,0.0,3.0,70,0.00,,,0.00,0,WeatherHawk,2013-03-07 03:11:00,
2013-03-06 21:16:00,28.2,19.3,30.30,WNW,297,1.0,3.0,69,0.00,,,0.00,0,WeatherHawk,2013-03-07 03:16:00,
2013-03-06 21:21:00,28.2,18.4,30.31,NW,315,0.0,0.0,66,0.00,,,0.00,0,WeatherHawk,2013-03-07 03:21:00,
2013-03-06 21:26:00,28.6,17.3,30.30,NW,308,5.0,0.0,62,0.00,,,0.00,0,WeatherHawk,2013-03-07 03:26:00,
2013-03-06 21:32:00,28.5,16.8,30.30,NNW,336,5.0,5.0,61,0.00,,,0.00,0,WeatherHawk,2013-03-07 03:32:00,
2013-03-06 21:37:00,28.2,17.3,30.30,NW,325,5.0,5.0,63,0.00,,,0.00,1,WeatherHawk,2013-03-07 03:37:00,
2013-03-06 21:42:00,28.0,17.4,30.30,WNW,287,4.0,9.0,64,0.00,,,0.00,0,WeatherHawk,2013-03-07 03:42:00,
2013-03-06 21:47:00,27.9,17.7,30.31,NNW,331,1.0,9.0,65,0.00,,,0.00,0,WeatherHawk,2013-03-07 03:47:00,
2013-03-06 21:53:00,27.9,17.7,30.30,NNW,340,2.0,7.0,65,0.00,,,0.00,0,WeatherHawk,2013-03-07 03:53:00,
2013-03-06 21:58:00,27.9,17.6,30.30,NNW,332,7.0,7.0,65,0.00,,,0.00,0,WeatherHawk,2013-03-07 03:58:00,
2013-03-06 22:03:00,27.8,17.3,30.30,NW,304,9.0,9.0,64,0.00,,,0.00,0,WeatherHawk,2013-03-07 04:03:00,
2013-03-06 22:08:00,27.8,17.2,30.31,NNW,330,6.0,6.0,64,0.00,,,0.00,0,WeatherHawk,2013-03-07 04:08:00,
2013-03-06 22:13:00,27.4,16.9,30.30,West,279,4.0,10.0,64,0.00,,,0.00,0,WeatherHawk,2013-03-07 04:13:00,
2013-03-06 22:18:00,27.5,16.9,30.31,NNW,329,5.0,10.0,64,0.00,,,0.00,0,WeatherHawk,2013-03-07 04:18:00,
2013-03-06 22:23:00,27.2,17.3,30.31,WNW,286,3.0,9.0,66,0.00,,,0.00,0,WeatherHawk,2013-03-07 04:23:00,
2013-03-06 22:28:00,27.2,17.4,30.31,NW,312,3.0,9.0,66,0.00,,,0.00,0,WeatherHawk,2013-03-07 04:28:00,
2013-03-06 22:33:00,27.0,16.8,30.30,NW,318,2.0,7.0,65,0.00,,,0.00,0,WeatherHawk,2013-03-07 04:33:00,
2013-03-06 22:38:00,26.9,17.1,30.31,WNW,287,0.0,7.0,66,0.00,,,0.00,0,WeatherHawk,2013-03-07 04:38:00,
2013-03-06 22:43:00,27.1,17.3,30.30,NW,321,3.0,7.0,66,0.00,,,0.00,0,WeatherHawk,2013-03-07 04:43:00,
2013-03-06 22:48:00,26.9,17.1,30.31,NW,314,0.0,7.0,66,0.00,,,0.00,0,WeatherHawk,2013-03-07 04:48:00,
2013-03-06 22:53:00,26.7,16.9,30.31,NNW,341,0.0,5.0,66,0.00,,,0.00,0,WeatherHawk,2013-03-07 04:53:00,
2013-03-06 23:00:00,26.5,16.7,30.30,NW,314,2.0,0.0,66,0.00,,,0.00,0,WeatherHawk,2013-03-07 05:00:00,
2013-03-06 23:05:00,26.1,16.3,30.31,WNW,292,1.0,3.0,66,0.00,,,0.00,0,WeatherHawk,2013-03-07 05:05:00,
2013-03-06 23:10:00,25.6,16.5,30.30,NW,326,0.0,4.0,68,0.00,,,0.00,0,WeatherHawk,2013-03-07 05:10:00,
2013-03-06 23:16:00,25.5,17.1,30.30,NW,306,1.0,4.0,70,0.00,,,0.00,0,WeatherHawk,2013-03-07 05:16:00,
2013-03-06 23:21:00,25.1,17.0,30.30,NW,315,1.0,4.0,71,0.00,,,0.00,0,WeatherHawk,2013-03-07 05:21:00,
2013-03-06 23:26:00,24.2,16.5,30.30,NNW,333,0.0,4.0,72,0.00,,,0.00,1,WeatherHawk,2013-03-07 05:26:00,
2013-03-06 23:31:00,24.7,17.9,30.30,NW,320,1.0,3.0,75,0.00,,,0.00,0,WeatherHawk,2013-03-07 05:31:00,
2013-03-06 23:37:00,24.3,17.9,30.29,NNW,327,1.0,3.0,76,0.00,,,0.00,0,WeatherHawk,2013-03-07 05:37:00,
2013-03-06 23:43:00,24.0,17.9,30.31,NNW,330,1.0,3.0,77,0.00,,,0.00,0,WeatherHawk,2013-03-07 05:43:00,
2013-03-06 23:48:00,23.7,17.9,30.31,NW,319,0.0,3.0,78,0.00,,,0.00,0,WeatherHawk,2013-03-07 05:48:00,
2013-03-06 23:54:00,23.0,17.1,30.31,NNW,333,0.0,3.0,78,0.00,,,0.00,0,WeatherHawk,2013-03-07 05:54:00,
2013-03-06 23:59:00,23.0,18.1,30.31,NNW,333,0.0,3.0,81,0.00,,,0.00,0,WeatherHawk,2013-03-07 05:59:00,